Time;durP1;ratioP1;P1;durP2;ratioP2;P2;SDS_P1;SDS_P2;PMS_P1;PMS_P2;Temp;Humidity;BMP_temperature;BMP_pressure;BME280_temperature;BME280_humidity;BME280_pressure;Samples;Min_cycle;Max_cycle;Signal;HPM_P1;HPM_P2
2023/11/16 00:01:37;;;;;;;9.17;3.87;;;;;;;;;;4935456;29;20238;-85
2023/11/16 00:04:05;;;;;;;9.77;4.13;;;;;;;;;;4931020;29;20229;-83
2023/11/16 00:06:32;;;;;;;7.77;4.37;;;;;;;;;;4939561;28;20223;-81
2023/11/16 00:08:57;;;;;;;8.70;4.30;;;;;;;;;;4940715;28;20257;-82
2023/11/16 00:11:24;;;;;;;9.30;4.53;;;;;;;;;;4935859;28;20234;-88
2023/11/16 00:13:50;;;;;;;7.43;4.53;;;;;;;;;;4936865;28;20346;-80
2023/11/16 00:16:19;;;;;;;8.07;4.77;;;;;;;;;;4923930;28;20723;-81
2023/11/16 00:18:46;;;;;;;10.80;4.80;;;;;;;;;;4953590;28;20719;-84
2023/11/16 00:21:15;;;;;;;20.90;5.00;;;;;;;;;;4930026;28;20294;-83
2023/11/16 00:23:41;;;;;;;7.70;4.47;;;;;;;;;;4956182;28;20222;-82
2023/11/16 00:26:11;;;;;;;10.87;5.30;;;;;;;;;;4969939;28;20217;-82
2023/11/16 00:28:43;;;;;;;13.37;4.97;;;;;;;;;;4943364;28;20211;-83
2023/11/16 00:31:08;;;;;;;11.03;5.30;;;;;;;;;;4969235;28;20290;-82
2023/11/16 00:33:36;;;;;;;11.03;5.10;;;;;;;;;;4960575;28;20233;-84
2023/11/16 00:36:11;;;;;;;8.10;4.87;;;;;;;;;;4952661;28;20214;-85
2023/11/16 00:38:38;;;;;;;9.87;5.60;;;;;;;;;;4934323;28;20243;-82
2023/11/16 00:41:13;;;;;;;11.30;5.43;;;;;;;;;;4923713;28;20281;-84
2023/11/16 00:43:41;;;;;;;10.27;5.43;;;;;;;;;;4946894;28;20322;-82
2023/11/16 00:46:11;;;;;;;6.57;5.33;;;;;;;;;;4950104;28;20211;-83
2023/11/16 00:48:40;;;;;;;12.37;6.47;;;;;;;;;;4963800;28;20217;-82
2023/11/16 00:51:07;;;;;;;9.33;5.70;;;;;;;;;;4952415;28;20219;-83
2023/11/16 00:53:34;;;;;;;9.90;6.27;;;;;;;;;;4952908;28;20688;-83
2023/11/16 00:56:00;;;;;;;10.40;5.50;;;;;;;;;;4923654;28;20234;-83
2023/11/16 00:58:28;;;;;;;10.60;5.30;;;;;;;;;;4946755;28;20310;-82
2023/11/16 01:00:53;;;;;;;11.80;6.27;;;;;;;;;;4919854;28;20210;-82
2023/11/16 01:03:20;;;;;;;10.43;5.93;;;;;;;;;;4957110;28;20862;-82
2023/11/16 01:05:47;;;;;;;8.80;6.30;;;;;;;;;;4954401;28;20253;-82
2023/11/16 01:08:16;;;;;;;16.70;6.47;;;;;;;;;;4923020;28;20230;-83
2023/11/16 01:10:44;;;;;;;10.70;6.00;;;;;;;;;;4953955;28;20282;-82
2023/11/16 01:13:12;;;;;;;10.67;5.70;;;;;;;;;;4941127;28;20227;-82
2023/11/16 01:15:40;;;;;;;12.33;6.17;;;;;;;;;;4957546;28;20726;-82
2023/11/16 01:18:10;;;;;;;9.73;5.87;;;;;;;;;;4952427;28;20226;-84
2023/11/16 01:20:36;;;;;;;10.60;6.30;;;;;;;;;;4969690;28;20611;-81
2023/11/16 01:23:10;;;;;;;10.73;5.60;;;;;;;;;;4956693;28;20230;-86
2023/11/16 01:25:40;;;;;;;9.97;5.13;;;;;;;;;;4956808;28;20627;-82
2023/11/16 01:28:09;;;;;;;10.43;5.67;;;;;;;;;;4941211;28;20242;-82
2023/11/16 01:30:37;;;;;;;7.00;5.03;;;;;;;;;;4968563;28;20231;-83
2023/11/16 01:33:08;;;;;;;8.10;4.63;;;;;;;;;;4960133;28;20214;-82
2023/11/16 01:35:44;;;;;;;10.90;4.77;;;;;;;;;;4943727;28;20755;-82
2023/11/16 01:38:12;;;;;;;9.27;4.90;;;;;;;;;;4950379;28;20317;-84
2023/11/16 01:40:41;;;;;;;8.37;4.77;;;;;;;;;;4957219;28;20218;-84
2023/11/16 01:43:09;;;;;;;9.30;4.80;;;;;;;;;;4953811;28;20718;-80
2023/11/16 01:45:35;;;;;;;10.57;4.40;;;;;;;;;;4979429;28;20221;-82
2023/11/16 01:48:06;;;;;;;11.63;4.93;;;;;;;;;;4956888;28;20215;-82
2023/11/16 01:50:35;;;;;;;6.63;4.87;;;;;;;;;;4938423;28;20305;-82
2023/11/16 01:53:09;;;;;;;13.70;5.20;;;;;;;;;;4922469;28;20214;-84
2023/11/16 01:55:36;;;;;;;11.50;4.87;;;;;;;;;;4933960;28;20253;-83
2023/11/16 01:58:05;;;;;;;9.53;4.70;;;;;;;;;;4945651;28;20738;-84
2023/11/16 02:00:33;;;;;;;10.00;5.00;;;;;;;;;;4955875;28;20619;-82
2023/11/16 02:03:04;;;;;;;8.13;4.77;;;;;;;;;;4948102;28;20233;-81
2023/11/16 02:05:34;;;;;;;7.77;4.30;;;;;;;;;;4947915;28;20309;-84
2023/11/16 02:08:10;;;;;;;5.67;3.93;;;;;;;;;;4966092;28;20209;-84
2023/11/16 02:10:37;;;;;;;8.87;3.63;;;;;;;;;;4942059;28;20226;-82
2023/11/16 02:13:03;;;;;;;9.17;4.00;;;;;;;;;;4922344;28;20588;-83
2023/11/16 02:15:34;;;;;;;6.67;3.17;;;;;;;;;;4938639;28;20324;-82
2023/11/16 02:17:59;;;;;;;5.20;3.20;;;;;;;;;;4965836;28;20864;-80
2023/11/16 02:20:28;;;;;;;7.07;3.47;;;;;;;;;;4953000;28;20270;-84
2023/11/16 02:22:54;;;;;;;8.63;3.53;;;;;;;;;;4970538;28;20724;-81
2023/11/16 02:25:23;;;;;;;5.10;3.03;;;;;;;;;;4944414;28;20276;-85
2023/11/16 02:27:50;;;;;;;5.03;3.10;;;;;;;;;;4944376;28;20683;-79
2023/11/16 02:30:19;;;;;;;5.60;3.30;;;;;;;;;;4941300;28;20587;-81
2023/11/16 02:32:45;;;;;;;5.87;3.17;;;;;;;;;;4941714;28;20234;-84
2023/11/16 02:35:12;;;;;;;3.93;2.50;;;;;;;;;;4942587;28;20210;-83
2023/11/16 02:37:37;;;;;;;4.57;2.43;;;;;;;;;;4927635;28;20573;-84
2023/11/16 02:40:04;;;;;;;5.93;2.43;;;;;;;;;;4948127;28;20210;-82
2023/11/16 02:42:30;;;;;;;3.20;2.23;;;;;;;;;;4944828;29;20219;-83
2023/11/16 02:44:57;;;;;;;4.83;2.43;;;;;;;;;;4941576;29;20223;-83
2023/11/16 02:47:24;;;;;;;4.60;2.30;;;;;;;;;;4951591;28;20243;-83
2023/11/16 02:49:52;;;;;;;4.70;2.50;;;;;;;;;;4958324;29;20221;-84
2023/11/16 02:52:20;;;;;;;5.17;2.40;;;;;;;;;;4942493;29;20215;-83
2023/11/16 02:54:48;;;;;;;5.03;2.23;;;;;;;;;;4952589;29;20226;-82
2023/11/16 02:57:14;;;;;;;6.17;2.53;;;;;;;;;;4923976;29;20238;-82
2023/11/16 02:59:40;;;;;;;2.93;1.80;;;;;;;;;;4938144;29;20227;-82
2023/11/16 03:02:06;;;;;;;2.90;1.90;;;;;;;;;;4942369;28;20242;-83
2023/11/16 03:04:35;;;;;;;2.67;1.80;;;;;;;;;;4938585;29;20210;-82
2023/11/16 03:07:02;;;;;;;4.97;1.70;;;;;;;;;;4931808;29;20225;-85
2023/11/16 03:09:30;;;;;;;4.37;2.03;;;;;;;;;;4938076;29;20629;-83
2023/11/16 03:11:58;;;;;;;2.97;1.80;;;;;;;;;;4907337;29;20229;-84
2023/11/16 03:14:28;;;;;;;4.23;2.13;;;;;;;;;;4932871;29;20723;-83
2023/11/16 03:16:55;;;;;;;6.17;2.60;;;;;;;;;;4921603;29;20359;-83
2023/11/16 03:19:22;;;;;;;4.47;2.00;;;;;;;;;;4920960;28;20234;-84
2023/11/16 03:21:49;;;;;;;6.23;2.33;;;;;;;;;;4934616;29;20224;-83
2023/11/16 03:24:14;;;;;;;4.43;1.97;;;;;;;;;;4937966;29;20235;-84
2023/11/16 03:26:44;;;;;;;5.47;2.17;;;;;;;;;;4937272;29;20219;-83
2023/11/16 03:29:12;;;;;;;4.33;1.80;;;;;;;;;;4932839;28;20207;-84
2023/11/16 03:31:40;;;;;;;5.57;1.67;;;;;;;;;;4922583;29;20378;-83
2023/11/16 03:34:13;;;;;;;9.47;1.97;;;;;;;;;;4913889;28;20234;-84
2023/11/16 03:36:39;;;;;;;4.13;1.70;;;;;;;;;;4947674;28;20226;-84
2023/11/16 03:39:04;;;;;;;3.93;1.67;;;;;;;;;;4955374;28;20659;-83
2023/11/16 03:41:36;;;;;;;4.10;1.50;;;;;;;;;;4932767;28;20222;-81
2023/11/16 03:44:04;;;;;;;2.80;1.50;;;;;;;;;;4941387;28;20250;-83
2023/11/16 03:46:32;;;;;;;6.03;2.10;;;;;;;;;;4958436;28;20225;-82
2023/11/16 03:49:00;;;;;;;5.73;1.73;;;;;;;;;;4955554;28;20244;-84
2023/11/16 03:51:30;;;;;;;4.37;1.77;;;;;;;;;;4954300;28;20293;-83
2023/11/16 03:53:57;;;;;;;5.17;1.30;;;;;;;;;;4964340;28;20266;-84
2023/11/16 03:56:23;;;;;;;3.67;1.43;;;;;;;;;;4924873;28;20312;-83
2023/11/16 03:58:48;;;;;;;9.30;1.70;;;;;;;;;;4939221;28;20310;-82
2023/11/16 04:05:05;;;;;;;1.57;1.40;;;;;;;;;;4970610;28;20224;-85
2023/11/16 04:07:37;;;;;;;2.33;1.30;;;;;;;;;;4954713;28;20293;-83
2023/11/16 04:10:04;;;;;;;2.80;1.20;;;;;;;;;;4949937;28;20240;-84
2023/11/16 04:12:29;;;;;;;2.93;1.60;;;;;;;;;;4955199;28;20719;-84
2023/11/16 04:14:56;;;;;;;5.73;1.40;;;;;;;;;;4952990;28;20230;-83
2023/11/16 04:17:21;;;;;;;3.50;1.37;;;;;;;;;;4941114;28;20221;-84
2023/11/16 04:19:51;;;;;;;2.57;1.40;;;;;;;;;;4950706;28;20230;-84
2023/11/16 04:22:21;;;;;;;5.17;1.30;;;;;;;;;;4951859;28;20307;-83
2023/11/16 04:24:52;;;;;;;3.33;1.53;;;;;;;;;;4946346;28;21107;-82
2023/11/16 04:27:20;;;;;;;2.53;1.13;;;;;;;;;;4940577;28;20297;-84
2023/11/16 04:29:48;;;;;;;4.47;1.10;;;;;;;;;;4969249;28;20242;-80
2023/11/16 04:32:17;;;;;;;5.57;1.37;;;;;;;;;;4931658;28;20223;-82
2023/11/16 04:34:44;;;;;;;2.10;0.93;;;;;;;;;;4956632;28;20583;-82
2023/11/16 04:37:12;;;;;;;2.23;0.93;;;;;;;;;;4951751;28;20302;-82
2023/11/16 04:39:37;;;;;;;3.63;1.07;;;;;;;;;;4983030;28;20294;-81
2023/11/16 04:42:05;;;;;;;1.60;0.80;;;;;;;;;;4967989;28;20226;-81
2023/11/16 04:44:33;;;;;;;1.10;0.70;;;;;;;;;;4978397;28;20229;-82
2023/11/16 04:46:59;;;;;;;2.10;0.80;;;;;;;;;;4943227;28;20310;-82
2023/11/16 04:49:24;;;;;;;1.03;0.60;;;;;;;;;;4925440;28;20226;-83
2023/11/16 04:51:53;;;;;;;3.63;1.07;;;;;;;;;;4946003;28;20243;-84
2023/11/16 04:54:19;;;;;;;2.97;0.90;;;;;;;;;;4939923;28;20596;-83
2023/11/16 04:56:44;;;;;;;1.60;0.80;;;;;;;;;;4967219;28;20707;-83
2023/11/16 04:59:12;;;;;;;2.20;0.80;;;;;;;;;;4957529;28;20230;-82
2023/11/16 05:01:40;;;;;;;0.77;0.50;;;;;;;;;;4949063;28;20218;-82
2023/11/16 05:04:12;;;;;;;6.20;0.90;;;;;;;;;;4952895;28;20225;-84
2023/11/16 05:06:40;;;;;;;1.07;0.50;;;;;;;;;;4939856;28;20219;-84
2023/11/16 05:09:10;;;;;;;0.90;0.60;;;;;;;;;;4966930;28;20222;-86
2023/11/16 05:11:38;;;;;;;2.50;0.70;;;;;;;;;;4945195;28;20730;-84
2023/11/16 05:14:06;;;;;;;1.10;0.50;;;;;;;;;;4949008;28;20251;-84
2023/11/16 05:16:36;;;;;;;2.30;0.80;;;;;;;;;;4938814;28;20281;-83
2023/11/16 05:19:02;;;;;;;1.60;0.70;;;;;;;;;;4924477;29;20246;-84
2023/11/16 05:21:29;;;;;;;0.77;0.50;;;;;;;;;;4935676;28;20233;-83
2023/11/16 05:23:59;;;;;;;1.63;0.70;;;;;;;;;;4924832;29;20207;-84
2023/11/16 05:26:25;;;;;;;1.20;0.50;;;;;;;;;;4944574;28;20238;-84
2023/11/16 05:28:58;;;;;;;1.37;0.60;;;;;;;;;;4930698;29;20223;-83
2023/11/16 05:31:27;;;;;;;3.30;0.60;;;;;;;;;;4917646;28;20234;-83
2023/11/16 05:33:56;;;;;;;4.20;0.80;;;;;;;;;;4928409;29;20235;-83
2023/11/16 05:36:22;;;;;;;1.00;0.50;;;;;;;;;;4942516;28;20310;-83
2023/11/16 05:38:50;;;;;;;1.23;0.63;;;;;;;;;;4946494;28;20231;-83
2023/11/16 05:41:20;;;;;;;1.60;0.63;;;;;;;;;;4989971;28;20300;-85
2023/11/16 05:43:48;;;;;;;0.87;0.40;;;;;;;;;;4974845;28;20223;-82
2023/11/16 05:46:14;;;;;;;1.20;0.60;;;;;;;;;;4961855;28;20226;-85
2023/11/16 05:48:43;;;;;;;2.47;0.70;;;;;;;;;;4939803;29;20230;-85
2023/11/16 05:51:15;;;;;;;1.07;0.50;;;;;;;;;;4948558;28;20232;-85
2023/11/16 05:53:43;;;;;;;1.13;0.53;;;;;;;;;;4975313;28;20229;-84
2023/11/16 05:56:09;;;;;;;5.30;0.83;;;;;;;;;;4970108;28;20222;-80
2023/11/16 05:58:34;;;;;;;1.53;0.83;;;;;;;;;;4946966;28;20222;-84
2023/11/16 06:01:02;;;;;;;1.50;0.80;;;;;;;;;;4946648;28;20290;-85
2023/11/16 06:03:31;;;;;;;1.47;0.67;;;;;;;;;;4969386;28;20542;-81
2023/11/16 06:05:58;;;;;;;3.03;0.63;;;;;;;;;;4962354;28;20237;-84
2023/11/16 06:08:24;;;;;;;2.97;0.87;;;;;;;;;;4962905;28;20234;-84
2023/11/16 06:10:50;;;;;;;1.27;0.60;;;;;;;;;;4932278;28;20222;-84
2023/11/16 06:13:22;;;;;;;1.20;0.60;;;;;;;;;;4958508;28;20210;-81
2023/11/16 06:15:53;;;;;;;3.07;0.90;;;;;;;;;;4965375;28;20218;-84
2023/11/16 06:18:18;;;;;;;0.77;0.67;;;;;;;;;;4969904;28;20238;-84
2023/11/16 06:20:47;;;;;;;4.90;1.00;;;;;;;;;;4969605;28;20225;-83
2023/11/16 06:23:12;;;;;;;4.13;0.70;;;;;;;;;;4960398;28;20253;-85
2023/11/16 06:25:40;;;;;;;2.63;0.70;;;;;;;;;;4935546;28;20231;-83
2023/11/16 06:28:08;;;;;;;3.30;0.70;;;;;;;;;;4960121;28;20226;-84
2023/11/16 06:30:38;;;;;;;1.30;0.50;;;;;;;;;;4940056;28;20233;-84
2023/11/16 06:33:04;;;;;;;0.60;0.50;;;;;;;;;;4933970;28;20218;-87
2023/11/16 06:35:32;;;;;;;2.33;0.50;;;;;;;;;;4957189;28;20282;-83
2023/11/16 06:37:58;;;;;;;2.50;0.80;;;;;;;;;;4972431;28;20265;-82
2023/11/16 06:40:23;;;;;;;0.57;0.57;;;;;;;;;;4946351;28;20308;-85
2023/11/16 06:42:49;;;;;;;1.73;0.60;;;;;;;;;;4943169;28;20226;-85
2023/11/16 06:45:14;;;;;;;1.00;0.53;;;;;;;;;;4971641;28;20223;-86
2023/11/16 06:47:48;;;;;;;3.60;0.93;;;;;;;;;;4944435;28;21051;-84
2023/11/16 06:50:13;;;;;;;2.10;0.60;;;;;;;;;;4963987;28;20280;-86
2023/11/16 06:52:41;;;;;;;4.67;0.83;;;;;;;;;;4923925;28;20237;-85
2023/11/16 06:55:12;;;;;;;3.03;0.70;;;;;;;;;;4941350;28;20222;-86
2023/11/16 06:57:39;;;;;;;3.20;0.80;;;;;;;;;;4947167;28;20222;-85
2023/11/16 07:00:14;;;;;;;4.37;0.80;;;;;;;;;;4926443;28;20218;-84
2023/11/16 07:02:45;;;;;;;2.57;0.93;;;;;;;;;;4906202;29;20251;-84
2023/11/16 07:05:12;;;;;;;3.60;0.70;;;;;;;;;;4916198;28;20219;-79
2023/11/16 07:07:41;;;;;;;2.27;0.73;;;;;;;;;;4940228;29;20402;-79
2023/11/16 07:10:09;;;;;;;2.87;0.90;;;;;;;;;;4933640;28;20227;-80
2023/11/16 07:12:41;;;;;;;5.30;0.87;;;;;;;;;;4928482;28;20251;-79
2023/11/16 07:15:08;;;;;;;1.17;0.63;;;;;;;;;;4952304;28;20226;-80
2023/11/16 07:17:33;;;;;;;4.47;1.43;;;;;;;;;;4948490;28;20217;-79
2023/11/16 07:20:05;;;;;;;2.10;0.80;;;;;;;;;;4962554;28;20231;-79
2023/11/16 07:22:31;;;;;;;5.73;0.90;;;;;;;;;;4959961;28;20254;-80
2023/11/16 07:24:58;;;;;;;1.37;0.63;;;;;;;;;;4963959;28;20219;-79
2023/11/16 07:27:24;;;;;;;1.93;1.23;;;;;;;;;;4976319;28;20261;-79
2023/11/16 07:29:49;;;;;;;2.40;0.73;;;;;;;;;;4969733;28;20226;-79
2023/11/16 07:32:18;;;;;;;4.17;0.80;;;;;;;;;;4966336;28;20849;-80
2023/11/16 07:34:46;;;;;;;1.70;0.60;;;;;;;;;;4964863;28;20229;-80
2023/11/16 07:37:12;;;;;;;0.67;0.60;;;;;;;;;;4964847;28;20219;-79
2023/11/16 07:39:38;;;;;;;1.53;0.57;;;;;;;;;;4950311;28;20237;-80
2023/11/16 07:42:07;;;;;;;1.23;0.70;;;;;;;;;;4961748;28;20219;-77
2023/11/16 07:44:33;;;;;;;3.40;1.13;;;;;;;;;;4968553;28;20226;-79
2023/11/16 07:47:01;;;;;;;2.50;0.70;;;;;;;;;;4946650;28;20221;-78
2023/11/16 07:49:27;;;;;;;3.17;0.50;;;;;;;;;;4951810;28;20277;-80
2023/11/16 07:51:57;;;;;;;2.03;0.77;;;;;;;;;;4960956;28;20321;-79
2023/11/16 07:54:25;;;;;;;1.87;0.80;;;;;;;;;;4961019;28;20254;-78
2023/11/16 07:56:55;;;;;;;4.87;0.90;;;;;;;;;;4945564;28;20214;-79
2023/11/16 07:59:25;;;;;;;2.67;0.80;;;;;;;;;;4974749;28;20223;-78
2023/11/16 08:01:56;;;;;;;1.73;0.73;;;;;;;;;;4942005;28;20763;-78
2023/11/16 08:04:27;;;;;;;1.53;0.50;;;;;;;;;;4960110;28;20293;-79
2023/11/16 08:06:53;;;;;;;3.67;0.80;;;;;;;;;;4960925;28;20222;-78
2023/11/16 08:09:35;;;;;;;2.63;0.90;;;;;;;;;;4951573;28;20621;-80
2023/11/16 08:12:03;;;;;;;1.67;0.83;;;;;;;;;;4938556;28;20230;-79
2023/11/16 08:14:31;;;;;;;1.33;0.70;;;;;;;;;;4970585;28;20225;-78
2023/11/16 08:16:59;;;;;;;1.63;0.83;;;;;;;;;;4935410;28;20298;-78
2023/11/16 08:19:34;;;;;;;4.73;0.70;;;;;;;;;;4958779;28;20264;-79
2023/11/16 08:22:01;;;;;;;2.77;0.73;;;;;;;;;;4954276;28;20222;-80
2023/11/16 08:24:27;;;;;;;3.70;1.10;;;;;;;;;;4946980;28;20314;-79
2023/11/16 08:26:52;;;;;;;2.27;0.70;;;;;;;;;;4952969;28;20237;-79
2023/11/16 08:29:18;;;;;;;1.77;0.97;;;;;;;;;;4947824;28;20222;-79
2023/11/16 08:31:52;;;;;;;4.07;1.20;;;;;;;;;;4945173;28;20242;-79
2023/11/16 08:34:19;;;;;;;1.43;0.80;;;;;;;;;;4980206;28;20703;-79
2023/11/16 08:36:47;;;;;;;6.67;0.90;;;;;;;;;;4967167;28;20218;-79
2023/11/16 08:39:15;;;;;;;3.20;0.80;;;;;;;;;;4980860;28;20235;-79
2023/11/16 08:41:46;;;;;;;0.83;0.70;;;;;;;;;;4966730;28;20234;-80
2023/11/16 08:44:12;;;;;;;3.80;1.07;;;;;;;;;;4969596;28;20261;-79
2023/11/16 08:46:43;;;;;;;2.63;0.90;;;;;;;;;;4972353;28;20230;-79
2023/11/16 08:49:10;;;;;;;1.80;0.80;;;;;;;;;;4972050;28;20212;-78
2023/11/16 08:51:47;;;;;;;4.33;0.83;;;;;;;;;;4974257;28;20226;-79
2023/11/16 08:54:14;;;;;;;1.27;0.70;;;;;;;;;;4985306;28;20249;-78
2023/11/16 08:56:42;;;;;;;4.10;1.17;;;;;;;;;;4958927;28;20218;-77
2023/11/16 08:59:07;;;;;;;2.47;0.83;;;;;;;;;;4972996;28;20322;-79
2023/11/16 09:01:39;;;;;;;1.33;0.80;;;;;;;;;;4979211;28;20230;-79
2023/11/16 09:04:12;;;;;;;2.27;0.90;;;;;;;;;;4985684;28;20229;-79
2023/11/16 09:06:41;;;;;;;2.70;1.00;;;;;;;;;;4972437;28;20281;-80
2023/11/16 09:09:33;;;;;;;1.70;1.20;;;;;;;;;;4980054;28;20225;-78
2023/11/16 09:11:54;;;;;;;2.77;0.80;;;;;;;;;;4975779;28;20301;-80
2023/11/16 09:14:22;;;;;;;2.83;0.60;;;;;;;;;;4957322;28;20719;-80
2023/11/16 09:16:51;;;;;;;3.40;0.90;;;;;;;;;;4951833;28;20225;-79
2023/11/16 09:19:22;;;;;;;1.87;0.90;;;;;;;;;;4962422;28;20237;-80
2023/11/16 09:21:48;;;;;;;2.40;0.87;;;;;;;;;;4943255;28;20288;-80
2023/11/16 09:24:14;;;;;;;3.70;0.90;;;;;;;;;;4967725;28;20219;-80
2023/11/16 09:26:40;;;;;;;2.53;0.90;;;;;;;;;;4969545;28;20337;-80
2023/11/16 09:29:08;;;;;;;4.33;1.10;;;;;;;;;;4955912;28;20223;-81
2023/11/16 09:31:36;;;;;;;2.67;1.23;;;;;;;;;;4957411;28;20218;-80
2023/11/16 09:34:03;;;;;;;1.53;0.80;;;;;;;;;;4954375;28;20230;-81
2023/11/16 09:36:33;;;;;;;0.70;0.50;;;;;;;;;;4981320;28;20250;-79
2023/11/16 09:39:01;;;;;;;1.50;0.90;;;;;;;;;;4969337;28;20246;-80
2023/11/16 09:41:31;;;;;;;0.90;0.70;;;;;;;;;;4958148;28;20214;-80
2023/11/16 09:44:05;;;;;;;2.97;0.70;;;;;;;;;;4969135;28;20301;-78
2023/11/16 09:46:33;;;;;;;1.60;0.80;;;;;;;;;;4957823;28;20223;-79
2023/11/16 09:48:59;;;;;;;4.07;0.97;;;;;;;;;;4972740;28;20221;-79
2023/11/16 09:51:26;;;;;;;2.40;0.77;;;;;;;;;;4970871;28;20227;-80
2023/11/16 09:53:54;;;;;;;1.73;1.10;;;;;;;;;;4942333;28;20221;-79
2023/11/16 09:56:27;;;;;;;2.17;1.00;;;;;;;;;;4954583;28;20223;-80
2023/11/16 09:59:01;;;;;;;0.90;0.70;;;;;;;;;;4947044;28;20309;-78
2023/11/16 10:01:37;;;;;;;1.20;1.10;;;;;;;;;;4946697;28;20230;-80
2023/11/16 10:04:10;;;;;;;1.70;0.80;;;;;;;;;;4978555;28;20234;-80
2023/11/16 10:06:46;;;;;;;1.07;0.73;;;;;;;;;;4953308;28;20219;-78
2023/11/16 10:09:14;;;;;;;2.07;0.80;;;;;;;;;;4947790;28;20219;-79
2023/11/16 10:11:43;;;;;;;1.40;0.80;;;;;;;;;;4963820;28;20233;-78
2023/11/16 10:14:09;;;;;;;3.37;1.10;;;;;;;;;;4939429;28;20222;-79
2023/11/16 10:16:36;;;;;;;2.53;0.80;;;;;;;;;;4942794;29;20226;-79
2023/11/16 10:19:05;;;;;;;1.23;0.80;;;;;;;;;;4937834;29;20230;-79
2023/11/16 10:21:39;;;;;;;3.00;0.90;;;;;;;;;;4955734;28;20218;-78
2023/11/16 10:24:12;;;;;;;1.37;0.77;;;;;;;;;;4965682;28;20225;-79
2023/11/16 10:26:39;;;;;;;1.40;0.67;;;;;;;;;;4966197;28;20226;-80
2023/11/16 10:29:06;;;;;;;1.93;1.10;;;;;;;;;;4956107;28;20584;-80
2023/11/16 10:31:32;;;;;;;1.70;0.93;;;;;;;;;;4937829;28;20219;-79
2023/11/16 10:33:58;;;;;;;2.70;0.73;;;;;;;;;;4964154;28;20229;-79
2023/11/16 10:36:27;;;;;;;1.60;0.83;;;;;;;;;;4949525;28;20227;-78
2023/11/16 10:38:57;;;;;;;1.07;0.50;;;;;;;;;;4951370;28;20222;-80
2023/11/16 10:41:23;;;;;;;1.63;0.67;;;;;;;;;;4972035;28;20229;-78
2023/11/16 10:43:52;;;;;;;0.90;0.60;;;;;;;;;;4947093;28;20225;-79
2023/11/16 10:46:21;;;;;;;1.07;0.60;;;;;;;;;;4965617;28;20293;-80
2023/11/16 10:48:49;;;;;;;1.00;0.67;;;;;;;;;;4961990;28;20226;-79
2023/11/16 10:51:14;;;;;;;1.73;0.87;;;;;;;;;;4966060;28;20227;-79
2023/11/16 10:53:45;;;;;;;1.80;0.67;;;;;;;;;;4967875;28;20213;-79
2023/11/16 10:56:11;;;;;;;1.03;0.63;;;;;;;;;;4950852;28;20223;-80
2023/11/16 10:58:39;;;;;;;0.90;0.60;;;;;;;;;;4946546;28;20285;-79
2023/11/16 11:01:10;;;;;;;2.07;0.70;;;;;;;;;;4917891;28;20322;-78
2023/11/16 11:03:38;;;;;;;3.50;0.70;;;;;;;;;;4943380;28;20306;-77
2023/11/16 11:06:06;;;;;;;1.63;0.90;;;;;;;;;;4917032;28;20755;-79
2023/11/16 11:08:40;;;;;;;1.43;0.93;;;;;;;;;;4936438;29;20215;-80
2023/11/16 11:11:08;;;;;;;1.97;1.00;;;;;;;;;;4932620;28;20235;-79
2023/11/16 11:13:39;;;;;;;1.13;0.80;;;;;;;;;;4950056;28;20230;-79
2023/11/16 11:16:08;;;;;;;1.13;0.70;;;;;;;;;;4913063;28;20222;-79
2023/11/16 11:18:52;;;;;;;1.27;0.70;;;;;;;;;;4959646;28;20231;-79
2023/11/16 11:21:21;;;;;;;1.17;0.60;;;;;;;;;;4974604;28;20262;-78
2023/11/16 11:24:08;;;;;;;1.70;0.70;;;;;;;;;;4956494;28;20287;-79
2023/11/16 11:26:49;;;;;;;0.83;0.60;;;;;;;;;;4934901;29;20230;-79
2023/11/16 11:29:15;;;;;;;1.60;0.60;;;;;;;;;;4932278;28;20255;-78
2023/11/16 11:32:00;;;;;;;0.63;0.60;;;;;;;;;;4940397;28;20225;-78
2023/11/16 11:34:28;;;;;;;2.13;1.00;;;;;;;;;;4945639;28;20242;-78
2023/11/16 11:36:56;;;;;;;2.23;0.70;;;;;;;;;;4934877;29;20252;-79
2023/11/16 11:39:26;;;;;;;3.27;0.80;;;;;;;;;;4936304;28;20587;-78
2023/11/16 11:41:59;;;;;;;3.67;1.00;;;;;;;;;;4942792;28;20647;-79
2023/11/16 11:44:26;;;;;;;0.60;0.60;;;;;;;;;;4935479;28;20235;-79
2023/11/16 11:46:56;;;;;;;2.30;0.70;;;;;;;;;;4931515;29;20223;-79
2023/11/16 11:49:28;;;;;;;2.67;0.83;;;;;;;;;;4932503;28;20227;-79
2023/11/16 11:52:01;;;;;;;1.27;0.80;;;;;;;;;;4929943;28;20238;-81
2023/11/16 11:54:35;;;;;;;2.07;0.77;;;;;;;;;;4922076;28;20732;-80
2023/11/16 11:57:05;;;;;;;1.47;0.70;;;;;;;;;;4946750;28;20266;-80
2023/11/16 11:59:31;;;;;;;1.20;0.80;;;;;;;;;;4952074;28;20243;-80
2023/11/16 12:01:57;;;;;;;2.53;1.07;;;;;;;;;;4943007;28;20227;-78
2023/11/16 12:04:30;;;;;;;8.37;0.90;;;;;;;;;;4917263;28;20238;-79
2023/11/16 12:07:03;;;;;;;1.10;0.60;;;;;;;;;;4934855;29;20224;-79
2023/11/16 12:09:36;;;;;;;0.93;0.63;;;;;;;;;;4955860;28;20248;-81
2023/11/16 12:12:06;;;;;;;2.60;0.90;;;;;;;;;;4953776;28;20251;-80
2023/11/16 12:14:38;;;;;;;2.10;0.60;;;;;;;;;;4946325;28;20594;-80
2023/11/16 12:17:06;;;;;;;1.13;0.70;;;;;;;;;;4964179;28;20727;-79
2023/11/16 12:19:39;;;;;;;1.03;0.70;;;;;;;;;;4934268;29;20307;-80
2023/11/16 12:22:06;;;;;;;5.23;1.20;;;;;;;;;;4935567;28;20233;-79
2023/11/16 12:24:34;;;;;;;2.63;0.90;;;;;;;;;;4943091;28;20229;-78
2023/11/16 12:27:00;;;;;;;2.00;0.87;;;;;;;;;;4952882;28;20226;-79
2023/11/16 12:29:26;;;;;;;2.80;1.10;;;;;;;;;;4954798;28;20226;-81
2023/11/16 12:31:57;;;;;;;1.20;0.80;;;;;;;;;;4945308;28;20237;-77
2023/11/16 12:34:25;;;;;;;3.40;0.80;;;;;;;;;;4949913;28;20607;-78
2023/11/16 12:37:00;;;;;;;3.13;0.90;;;;;;;;;;4950162;28;20218;-80
2023/11/16 12:39:26;;;;;;;1.07;0.93;;;;;;;;;;4947035;28;20284;-82
2023/11/16 12:41:55;;;;;;;2.43;0.90;;;;;;;;;;4933588;29;20236;-78
2023/11/16 12:44:23;;;;;;;3.73;0.90;;;;;;;;;;4942551;28;20638;-78
2023/11/16 12:46:52;;;;;;;2.53;0.70;;;;;;;;;;4939567;28;20697;-79
2023/11/16 12:49:17;;;;;;;4.00;0.90;;;;;;;;;;4944677;28;20270;-78
2023/11/16 12:51:45;;;;;;;1.60;0.60;;;;;;;;;;4932437;29;20330;-79
2023/11/16 12:54:11;;;;;;;1.40;0.80;;;;;;;;;;4971059;28;20225;-81
2023/11/16 12:56:37;;;;;;;2.90;0.90;;;;;;;;;;4950078;28;20697;-77
2023/11/16 12:59:06;;;;;;;3.03;0.77;;;;;;;;;;4926566;28;20681;-79
2023/11/16 13:01:34;;;;;;;1.87;1.07;;;;;;;;;;4947262;28;20720;-80
2023/11/16 13:04:00;;;;;;;2.93;1.00;;;;;;;;;;4947915;28;20235;-79
2023/11/16 13:06:27;;;;;;;1.30;1.00;;;;;;;;;;4930729;28;20219;-80
2023/11/16 13:08:55;;;;;;;3.73;0.87;;;;;;;;;;4939708;28;20242;-80
2023/11/16 13:11:21;;;;;;;1.63;0.97;;;;;;;;;;4950207;28;20250;-80
2023/11/16 13:13:47;;;;;;;3.83;1.00;;;;;;;;;;4948849;28;20234;-80
2023/11/16 13:16:17;;;;;;;1.53;0.60;;;;;;;;;;4933556;28;20237;-80
2023/11/16 13:18:48;;;;;;;1.73;0.60;;;;;;;;;;4938854;29;20286;-78
2023/11/16 13:21:16;;;;;;;1.23;0.70;;;;;;;;;;4937488;28;20290;-79
2023/11/16 13:23:42;;;;;;;2.20;0.80;;;;;;;;;;4948641;28;20593;-79
2023/11/16 13:26:09;;;;;;;5.47;0.90;;;;;;;;;;4945675;28;20215;-80
2023/11/16 13:28:35;;;;;;;2.33;0.70;;;;;;;;;;4932950;29;20247;-80
2023/11/16 13:31:03;;;;;;;2.47;1.13;;;;;;;;;;4945598;28;20215;-80
2023/11/16 13:33:34;;;;;;;2.33;0.63;;;;;;;;;;4966374;28;20230;-79
2023/11/16 13:36:01;;;;;;;1.53;1.20;;;;;;;;;;4971494;28;20957;-80
2023/11/16 13:38:28;;;;;;;1.80;0.87;;;;;;;;;;4971341;28;20222;-80
2023/11/16 13:40:56;;;;;;;1.47;1.00;;;;;;;;;;4965426;28;20223;-83
2023/11/16 13:43:21;;;;;;;1.43;0.80;;;;;;;;;;4974217;28;20705;-83
2023/11/16 13:45:47;;;;;;;1.40;1.30;;;;;;;;;;4982123;28;20226;-84
2023/11/16 13:48:12;;;;;;;3.93;1.07;;;;;;;;;;4969325;28;20223;-82
2023/11/16 13:50:44;;;;;;;1.50;0.90;;;;;;;;;;4963538;28;20218;-82
2023/11/16 13:53:10;;;;;;;3.27;1.27;;;;;;;;;;4978508;28;20227;-83
2023/11/16 13:55:36;;;;;;;1.17;0.80;;;;;;;;;;4948134;28;20265;-82
2023/11/16 13:58:01;;;;;;;1.57;0.97;;;;;;;;;;4930080;28;20313;-83
2023/11/16 14:00:28;;;;;;;1.27;0.77;;;;;;;;;;4938051;28;20225;-83
2023/11/16 14:02:54;;;;;;;1.77;0.90;;;;;;;;;;4963483;28;20325;-82
2023/11/16 14:05:23;;;;;;;1.53;0.90;;;;;;;;;;4969642;28;20226;-80
2023/11/16 14:07:49;;;;;;;4.87;1.10;;;;;;;;;;4964795;28;20226;-80
2023/11/16 14:10:17;;;;;;;3.40;1.00;;;;;;;;;;4960614;28;20221;-82
2023/11/16 14:12:43;;;;;;;2.97;1.10;;;;;;;;;;4940288;28;20238;-83
2023/11/16 14:15:11;;;;;;;1.40;0.83;;;;;;;;;;4951677;28;20228;-82
2023/11/16 14:17:37;;;;;;;3.27;1.10;;;;;;;;;;4965775;28;20230;-83
2023/11/16 14:20:06;;;;;;;1.30;0.77;;;;;;;;;;4961460;28;20237;-82
2023/11/16 14:22:32;;;;;;;1.73;0.87;;;;;;;;;;4976195;28;20446;-84
2023/11/16 14:24:58;;;;;;;2.03;0.70;;;;;;;;;;4960306;28;20224;-83
2023/11/16 14:27:26;;;;;;;2.57;0.80;;;;;;;;;;4946580;28;20239;-82
2023/11/16 14:29:53;;;;;;;1.77;0.90;;;;;;;;;;4953550;28;20218;-82
2023/11/16 14:32:27;;;;;;;1.07;0.90;;;;;;;;;;4949254;28;20301;-81
2023/11/16 14:34:54;;;;;;;3.83;1.37;;;;;;;;;;4980311;28;20228;-82
2023/11/16 14:37:24;;;;;;;1.80;0.90;;;;;;;;;;4961324;28;20222;-83
2023/11/16 14:39:52;;;;;;;1.97;1.03;;;;;;;;;;4958983;28;20241;-83
2023/11/16 14:42:22;;;;;;;1.73;0.90;;;;;;;;;;4973876;28;20290;-83
2023/11/16 14:44:51;;;;;;;4.37;0.90;;;;;;;;;;4977669;28;20311;-82
2023/11/16 14:47:19;;;;;;;2.70;1.30;;;;;;;;;;4962119;28;20262;-81
2023/11/16 14:49:45;;;;;;;1.87;0.90;;;;;;;;;;4973655;28;20230;-82
2023/11/16 14:52:12;;;;;;;4.10;1.40;;;;;;;;;;4974364;28;20233;-80
2023/11/16 14:54:42;;;;;;;3.43;1.03;;;;;;;;;;4974200;28;20336;-80